Time;durP1;ratioP1;P1;durP2;ratioP2;P2;SDS_P1;SDS_P2;PMS_P1;PMS_P2;Temp;Humidity;BMP_temperature;BMP_pressure;BME280_temperature;BME280_humidity;BME280_pressure;Samples;Min_cycle;Max_cycle;Signal;HPM_P1;HPM_P2
2020/12/16 00:00:51;;;;;;;59.77;32.60;;;5.90;76.40;;;;;;4924531;28;91167;-76
2020/12/16 00:03:17;;;;;;;66.23;34.93;;;6.00;76.60;;;;;;4919716;28;87527;-76
2020/12/16 00:05:44;;;;;;;61.10;34.53;;;5.90;77.00;;;;;;4935192;28;88063;-76
2020/12/16 00:08:10;;;;;;;59.37;34.80;;;6.00;77.10;;;;;;4938701;28;87797;-76
2020/12/16 00:10:35;;;;;;;63.57;35.63;;;6.00;77.10;;;;;;4924382;28;90965;-76
2020/12/16 00:13:03;;;;;;;57.73;34.33;;;6.00;77.30;;;;;;4919371;28;87994;-76
2020/12/16 00:15:29;;;;;;;57.03;33.43;;;6.00;77.20;;;;;;4902993;28;88320;-76
2020/12/16 00:17:55;;;;;;;53.77;31.73;;;6.00;77.30;;;;;;4929823;28;88244;-76
2020/12/16 00:20:21;;;;;;;65.83;34.83;;;6.00;77.50;;;;;;4940019;28;87428;-76
2020/12/16 00:22:47;;;;;;;56.67;32.70;;;6.00;77.50;;;;;;4938677;28;87036;-76
2020/12/16 00:25:13;;;;;;;57.87;32.17;;;6.00;77.40;;;;;;4920088;28;87720;-76
2020/12/16 00:27:39;;;;;;;59.23;32.30;;;6.00;77.40;;;;;;4934537;28;89875;-76
2020/12/16 00:30:06;;;;;;;57.87;32.70;;;6.10;77.40;;;;;;4951546;28;90829;-76
2020/12/16 00:32:38;;;;;;;51.87;30.57;;;6.10;77.70;;;;;;4938364;28;87106;-76
2020/12/16 00:35:06;;;;;;;53.92;31.80;;;6.10;77.30;;;;;;4940358;28;87102;-76
2020/12/16 00:37:42;;;;;;;61.93;34.20;;;6.10;77.30;;;;;;4937408;28;89120;-76
2020/12/16 00:40:11;;;;;;;54.53;32.63;;;6.10;77.20;;;;;;4938616;28;92410;-77
2020/12/16 00:42:37;;;;;;;56.53;33.10;;;6.10;77.30;;;;;;4937890;28;87384;-76
2020/12/16 00:45:04;;;;;;;55.63;32.43;;;6.10;77.30;;;;;;4938751;28;88134;-76
2020/12/16 00:47:33;;;;;;;56.60;31.60;;;6.20;77.60;;;;;;4939001;28;88583;-76
2020/12/16 00:49:59;;;;;;;57.10;32.80;;;6.20;77.60;;;;;;4938566;28;91861;-76
2020/12/16 00:52:28;;;;;;;48.37;28.50;;;6.20;77.50;;;;;;4938038;28;86894;-76
2020/12/16 00:54:54;;;;;;;54.47;31.57;;;6.20;77.40;;;;;;4939014;28;87066;-76
2020/12/16 00:57:21;;;;;;;49.27;28.70;;;6.10;77.40;;;;;;4937876;28;91541;-76
2020/12/16 00:59:47;;;;;;;47.23;27.20;;;6.10;77.60;;;;;;4918799;28;91602;-76
2020/12/16 01:02:13;;;;;;;52.33;29.27;;;6.10;77.90;;;;;;4925143;28;88100;-76
2020/12/16 01:04:39;;;;;;;47.07;28.00;;;6.10;78.00;;;;;;4930706;28;88416;-76
2020/12/16 01:07:05;;;;;;;48.93;29.50;;;6.00;78.00;;;;;;4944723;28;91453;-76
2020/12/16 01:09:31;;;;;;;45.47;26.93;;;6.00;78.20;;;;;;4915367;28;91088;-76
2020/12/16 01:11:57;;;;;;;51.70;30.37;;;6.10;78.40;;;;;;4921390;28;87430;-76
2020/12/16 01:14:24;;;;;;;45.40;26.60;;;6.00;78.80;;;;;;4928868;28;87962;-76
2020/12/16 01:16:50;;;;;;;47.50;27.87;;;5.90;79.10;;;;;;4957547;28;88721;-76
2020/12/16 01:19:22;;;;;;;46.60;27.90;;;5.90;79.50;;;;;;4942275;28;92076;-76
2020/12/16 01:21:48;;;;;;;44.63;27.70;;;5.80;79.70;;;;;;4957490;28;87470;-76
2020/12/16 01:24:14;;;;;;;46.43;27.37;;;5.90;79.90;;;;;;4941652;28;87399;-76
2020/12/16 01:26:50;;;;;;;45.77;27.77;;;5.90;79.70;;;;;;4925150;28;93025;-76
2020/12/16 01:29:17;;;;;;;45.63;26.53;;;6.00;79.50;;;;;;4922349;28;91789;-76
2020/12/16 01:31:46;;;;;;;46.83;29.77;;;6.00;79.10;;;;;;4921122;28;87164;-76
2020/12/16 01:34:22;;;;;;;47.90;29.07;;;6.10;78.80;;;;;;4922585;28;87264;-76
2020/12/16 01:36:55;;;;;;;46.77;28.57;;;6.10;78.70;;;;;;4922736;28;91854;-76
2020/12/16 01:39:22;;;;;;;49.37;30.93;;;6.20;78.80;;;;;;4939758;28;90968;-77
2020/12/16 01:41:49;;;;;;;43.40;27.13;;;6.30;78.70;;;;;;4923166;28;87657;-76
2020/12/16 01:44:24;;;;;;;42.38;27.17;;;6.30;78.80;;;;;;4924159;28;86426;-77
2020/12/16 01:46:59;;;;;;;47.40;28.77;;;6.30;78.70;;;;;;4907494;28;89724;-77
2020/12/16 01:49:32;;;;;;;45.27;27.73;;;6.40;78.60;;;;;;4931142;28;91139;-76
2020/12/16 01:52:04;;;;;;;48.50;29.20;;;6.40;78.00;;;;;;4933248;28;87780;-76
2020/12/16 01:54:33;;;;;;;44.00;27.23;;;6.30;78.20;;;;;;4922492;28;87672;-76
2020/12/16 01:57:02;;;;;;;44.97;27.13;;;6.30;78.60;;;;;;4922182;28;90019;-77
2020/12/16 01:59:44;;;;;;;47.37;27.63;;;6.30;78.90;;;;;;4920889;28;91973;-76
2020/12/16 02:02:19;;;;;;;50.83;31.13;;;6.30;79.10;;;;;;4934557;28;87286;-76
2020/12/16 02:04:50;;;;;;;51.47;31.37;;;6.30;79.20;;;;;;4935251;28;87733;-77
2020/12/16 02:07:16;;;;;;;51.20;31.20;;;6.30;79.20;;;;;;4943729;28;91182;-77
2020/12/16 02:09:46;;;;;;;48.47;29.10;;;6.30;79.50;;;;;;4921048;28;91285;-76
2020/12/16 02:12:20;;;;;;;46.87;28.57;;;6.20;79.60;;;;;;4921439;28;87263;-76
2020/12/16 02:14:46;;;;;;;45.83;29.27;;;6.20;79.80;;;;;;4920751;28;88452;-77
2020/12/16 02:17:15;;;;;;;46.10;28.37;;;6.30;79.80;;;;;;4922891;28;89850;-77
2020/12/16 02:19:57;;;;;;;52.47;29.10;;;6.30;79.80;;;;;;4938946;28;91267;-76
2020/12/16 02:22:25;;;;;;;46.87;28.93;;;6.30;79.40;;;;;;4940064;28;87127;-76
2020/12/16 02:25:10;;;;;;;46.37;28.20;;;6.40;79.20;;;;;;4940024;28;87950;-77
2020/12/16 02:27:43;;;;;;;45.70;27.03;;;6.40;79.00;;;;;;4930483;28;88298;-77
2020/12/16 02:30:17;;;;;;;46.50;28.00;;;6.40;78.90;;;;;;4921036;28;90193;-76
2020/12/16 02:33:09;;;;;;;48.53;28.55;;;6.40;78.90;;;;;;4917441;28;87079;-76
2020/12/16 02:35:45;;;;;;;49.73;29.30;;;6.40;79.00;;;;;;4920907;28;86898;-77
2020/12/16 02:38:15;;;;;;;49.87;29.10;;;6.40;79.10;;;;;;4920402;28;91454;-76
2020/12/16 02:40:41;;;;;;;42.57;27.53;;;6.50;79.10;;;;;;4919838;28;92061;-76
2020/12/16 02:43:10;;;;;;;42.70;26.20;;;6.50;79.10;;;;;;4920632;28;87961;-76
2020/12/16 02:45:35;;;;;;;43.73;27.63;;;6.50;78.80;;;;;;4920637;28;87162;-77
2020/12/16 02:48:13;;;;;;;46.50;28.27;;;6.50;79.00;;;;;;4921090;28;88203;-76
2020/12/16 02:50:41;;;;;;;44.93;27.97;;;6.50;79.00;;;;;;4904579;28;91508;-77
2020/12/16 02:53:07;;;;;;;48.00;27.93;;;6.50;79.00;;;;;;4921323;28;87062;-77
2020/12/16 02:55:52;;;;;;;45.97;27.00;;;6.50;78.80;;;;;;4922465;28;86959;-76
2020/12/16 02:58:19;;;;;;;43.50;27.13;;;6.50;78.80;;;;;;4921148;28;90490;-76
2020/12/16 03:00:44;;;;;;;46.77;28.37;;;6.50;79.10;;;;;;4922290;28;88061;-76
2020/12/16 03:03:30;;;;;;;47.03;28.33;;;6.40;79.40;;;;;;4922541;28;86958;-76
2020/12/16 03:06:15;;;;;;;46.00;27.57;;;6.50;79.60;;;;;;4940481;28;87445;-76
2020/12/16 03:09:03;;;;;;;43.93;26.87;;;6.50;79.40;;;;;;4943296;28;89772;-77
2020/12/16 03:11:31;;;;;;;43.10;26.87;;;6.50;79.50;;;;;;4921895;28;91899;-76
2020/12/16 03:13:59;;;;;;;43.87;27.03;;;6.60;79.40;;;;;;4935666;28;87253;-76
2020/12/16 03:16:25;;;;;;;43.60;26.73;;;6.60;79.30;;;;;;4920402;28;87294;-76
2020/12/16 03:19:03;;;;;;;47.17;26.60;;;6.60;79.30;;;;;;4938718;28;89109;-77
2020/12/16 03:21:29;;;;;;;46.43;27.93;;;6.60;79.00;;;;;;4955987;28;89571;-76
2020/12/16 03:24:13;;;;;;;44.47;27.47;;;6.70;78.90;;;;;;4932354;28;87120;-76
2020/12/16 03:26:57;;;;;;;42.57;26.40;;;6.70;78.90;;;;;;4922222;28;86204;-77
2020/12/16 03:29:55;;;;;;;41.17;26.13;;;6.70;79.00;;;;;;4909926;28;88726;-76
2020/12/16 03:32:50;;;;;;;46.67;27.90;;;6.70;79.10;;;;;;4930784;28;89294;-76
2020/12/16 03:35:36;;;;;;;42.60;25.13;;;6.70;79.10;;;;;;4926455;28;88050;-77
2020/12/16 03:38:05;;;;;;;44.70;26.80;;;6.70;78.90;;;;;;4955392;28;87825;-77
2020/12/16 03:40:33;;;;;;;40.93;25.83;;;6.70;78.70;;;;;;4938807;28;92099;-76
2020/12/16 03:43:02;;;;;;;46.60;27.03;;;6.80;78.70;;;;;;4939626;28;90381;-77
2020/12/16 03:45:28;;;;;;;35.90;24.77;;;6.80;78.50;;;;;;4939464;28;87548;-76
2020/12/16 03:47:55;;;;;;;38.40;24.97;;;6.80;78.50;;;;;;4925174;28;87527;-76
2020/12/16 03:50:22;;;;;;;41.43;26.73;;;6.90;78.40;;;;;;4920267;28;89352;-76
2020/12/16 03:52:49;;;;;;;39.57;25.73;;;6.80;78.40;;;;;;4919747;28;90810;-76
2020/12/16 03:55:35;;;;;;;41.03;26.33;;;6.90;78.40;;;;;;4919738;28;88504;-77
2020/12/16 03:58:30;;;;;;;48.03;30.37;;;6.90;78.60;;;;;;4909391;28;87472;-76
2020/12/16 04:01:15;;;;;;;43.27;26.97;;;6.90;78.10;;;;;;4921417;28;89326;-76
2020/12/16 04:03:42;;;;;;;44.57;26.43;;;6.90;78.40;;;;;;4916518;28;91234;-77
2020/12/16 04:06:18;;;;;;;42.73;26.23;;;6.90;78.40;;;;;;4924347;28;87461;-76
2020/12/16 04:08:46;;;;;;;41.13;27.00;;;6.90;78.20;;;;;;4954545;28;87170;-77
2020/12/16 04:11:22;;;;;;;41.10;26.67;;;6.90;78.00;;;;;;4938946;28;92015;-77
2020/12/16 04:13:58;;;;;;;39.97;26.00;;;7.00;78.10;;;;;;4938925;28;92543;-77
2020/12/16 04:16:29;;;;;;;42.07;25.70;;;7.00;78.10;;;;;;4938538;28;87580;-76
2020/12/16 04:19:04;;;;;;;45.17;26.03;;;7.00;78.10;;;;;;4938796;28;88447;-76
2020/12/16 04:21:30;;;;;;;42.20;23.37;;;7.00;77.90;;;;;;4910846;28;91158;-76
2020/12/16 04:23:56;;;;;;;42.50;26.83;;;7.00;77.80;;;;;;4929866;28;91139;-77
2020/12/16 04:26:33;;;;;;;42.63;25.10;;;7.00;77.50;;;;;;4937056;28;87992;-76
2020/12/16 04:29:05;;;;;;;42.08;25.38;;;7.00;77.50;;;;;;4919450;28;87639;-76
2020/12/16 04:31:31;;;;;;;36.83;22.17;;;6.90;77.90;;;;;;4918985;28;91452;-77
2020/12/16 04:33:57;;;;;;;32.97;21.63;;;6.90;77.80;;;;;;4935447;28;91310;-76
2020/12/16 04:36:25;;;;;;;39.67;22.23;;;6.90;77.30;;;;;;4919121;28;87352;-76
2020/12/16 04:38:52;;;;;;;39.93;22.53;;;6.90;77.00;;;;;;4918592;28;87518;-77
2020/12/16 04:41:19;;;;;;;37.30;22.63;;;6.90;77.20;;;;;;4919143;28;88705;-76
2020/12/16 04:43:56;;;;;;;38.40;22.23;;;6.90;77.00;;;;;;4919311;28;92484;-76
2020/12/16 04:46:30;;;;;;;33.77;19.80;;;6.90;77.10;;;;;;4921106;28;87119;-77
2020/12/16 04:48:57;;;;;;;32.10;19.37;;;6.90;77.20;;;;;;4924481;28;88512;-76
2020/12/16 04:51:33;;;;;;;31.20;18.60;;;7.00;77.20;;;;;;4923014;28;92681;-76
2020/12/16 04:54:02;;;;;;;28.97;19.37;;;7.00;77.00;;;;;;4941162;28;91802;-76
2020/12/16 04:56:35;;;;;;;29.77;19.53;;;7.10;76.70;;;;;;4927171;28;87454;-77
2020/12/16 04:59:05;;;;;;;30.03;18.23;;;7.10;76.60;;;;;;4928455;28;87482;-76
2020/12/16 05:01:40;;;;;;;29.13;19.00;;;7.10;76.50;;;;;;4926042;28;91163;-76
2020/12/16 05:04:09;;;;;;;65.37;37.10;;;7.20;76.50;;;;;;4914897;28;90158;-76
2020/12/16 05:06:44;;;;;;;75.57;41.20;;;7.20;75.80;;;;;;4970753;28;87419;-76
2020/12/16 05:09:13;;;;;;;39.80;24.50;;;7.20;75.40;;;;;;4946915;28;86508;-77
2020/12/16 05:11:50;;;;;;;38.90;22.97;;;7.20;75.60;;;;;;4944565;28;91675;-76
2020/12/16 05:14:19;;;;;;;35.90;22.50;;;7.20;75.80;;;;;;4944381;28;87948;-76
2020/12/16 05:16:57;;;;;;;26.10;16.87;;;7.20;75.80;;;;;;4941313;28;88249;-76
2020/12/16 05:19:44;;;;;;;55.93;36.07;;;7.20;76.00;;;;;;4946557;28;86779;-76
2020/12/16 05:22:28;;;;;;;37.60;22.07;;;7.30;75.50;;;;;;4941885;28;87289;-76
2020/12/16 05:24:57;;;;;;;27.97;19.23;;;7.20;75.40;;;;;;4941320;28;89050;-76
2020/12/16 05:27:30;;;;;;;32.50;20.03;;;7.20;75.80;;;;;;4941498;28;87220;-76
2020/12/16 05:30:01;;;;;;;27.13;18.07;;;7.20;75.50;;;;;;4911170;28;88540;-76
2020/12/16 05:32:32;;;;;;;31.87;19.77;;;7.20;76.10;;;;;;4922267;28;91425;-77
2020/12/16 05:34:59;;;;;;;30.47;20.73;;;7.10;75.70;;;;;;4922213;28;91011;-77
2020/12/16 05:37:35;;;;;;;27.70;17.67;;;7.00;75.90;;;;;;4923418;28;87193;-77
2020/12/16 05:40:16;;;;;;;28.57;17.43;;;7.10;76.40;;;;;;4922476;28;87634;-76
2020/12/16 05:42:45;;;;;;;24.70;17.73;;;7.10;76.30;;;;;;4920786;28;92715;-76
2020/12/16 05:45:20;;;;;;;29.43;17.10;;;7.10;76.60;;;;;;4922195;28;88953;-76
2020/12/16 05:48:10;;;;;;;29.63;17.87;;;7.20;76.70;;;;;;4921403;28;87314;-77
2020/12/16 05:50:53;;;;;;;27.03;16.97;;;7.20;75.80;;;;;;4905631;28;87641;-76
2020/12/16 05:53:27;;;;;;;24.53;15.53;;;7.20;75.50;;;;;;4922296;28;90316;-77
2020/12/16 05:56:01;;;;;;;33.47;16.97;;;7.20;75.00;;;;;;4922334;28;87558;-76
2020/12/16 05:58:29;;;;;;;25.13;16.30;;;7.20;75.10;;;;;;4921839;28;87472;-76
2020/12/16 06:00:59;;;;;;;26.33;16.70;;;7.20;75.40;;;;;;4921733;28;88588;-76
2020/12/16 06:03:33;;;;;;;26.60;15.63;;;7.20;75.30;;;;;;4923319;28;88427;-76
2020/12/16 06:06:07;;;;;;;25.00;17.37;;;7.20;75.10;;;;;;4940292;28;91328;-77
2020/12/16 06:08:51;;;;;;;27.37;16.20;;;7.20;75.00;;;;;;4943918;28;87861;-76
2020/12/16 06:11:17;;;;;;;27.57;16.70;;;7.20;75.10;;;;;;4944022;28;87055;-77
2020/12/16 06:13:47;;;;;;;22.57;16.20;;;7.20;75.10;;;;;;4942662;28;91353;-76
2020/12/16 06:16:12;;;;;;;26.73;17.47;;;7.20;74.80;;;;;;4959101;28;90490;-77
2020/12/16 06:18:45;;;;;;;26.67;16.77;;;7.20;75.00;;;;;;4942852;28;87349;-76
2020/12/16 06:21:12;;;;;;;27.80;17.53;;;7.10;75.20;;;;;;4943813;28;87636;-76
2020/12/16 06:23:47;;;;;;;31.83;17.57;;;7.20;75.60;;;;;;4938825;28;89736;-76
2020/12/16 06:26:15;;;;;;;26.90;17.20;;;7.10;75.70;;;;;;4923109;28;91259;-76
2020/12/16 06:28:45;;;;;;;26.23;17.17;;;7.10;75.80;;;;;;4923052;28;87265;-76
2020/12/16 06:31:27;;;;;;;33.30;18.60;;;7.20;75.90;;;;;;4939954;28;88089;-76
2020/12/16 06:34:00;;;;;;;27.23;17.58;;;7.20;75.90;;;;;;4923696;28;89220;-76
2020/12/16 06:36:31;;;;;;;26.70;17.20;;;7.20;75.80;;;;;;4924362;28;91781;-77
2020/12/16 06:38:58;;;;;;;28.10;17.97;;;7.30;75.80;;;;;;4924990;28;87004;-76
2020/12/16 06:41:27;;;;;;;31.70;19.00;;;7.30;75.50;;;;;;4922927;28;87920;-76
2020/12/16 06:44:09;;;;;;;38.23;21.73;;;7.30;75.60;;;;;;4920606;28;88601;-76
2020/12/16 06:46:38;;;;;;;38.03;22.23;;;7.30;75.60;;;;;;4920196;28;91470;-76
2020/12/16 06:49:05;;;;;;;37.40;22.57;;;7.30;75.50;;;;;;4920664;28;87018;-77
2020/12/16 06:51:43;;;;;;;38.90;22.13;;;7.30;75.40;;;;;;4926534;28;86868;-76
2020/12/16 06:54:14;;;;;;;34.43;21.87;;;7.30;75.20;;;;;;4942027;28;88359;-76
2020/12/16 06:56:41;;;;;;;28.67;18.77;;;7.30;75.10;;;;;;4932922;28;87863;-76
2020/12/16 06:59:07;;;;;;;28.43;19.63;;;7.30;75.40;;;;;;4904645;28;88629;-76
2020/12/16 07:01:34;;;;;;;28.07;18.97;;;7.30;75.20;;;;;;4921520;28;87228;-76
2020/12/16 07:04:00;;;;;;;33.93;20.33;;;7.40;75.20;;;;;;4921756;28;91905;-77
2020/12/16 07:06:28;;;;;;;30.73;19.10;;;7.40;75.40;;;;;;4941336;28;87569;-76
2020/12/16 07:09:13;;;;;;;31.40;20.97;;;7.40;75.30;;;;;;4938537;28;86996;-76
2020/12/16 07:11:40;;;;;;;33.97;19.07;;;7.40;75.20;;;;;;4939466;28;87462;-76
2020/12/16 07:14:17;;;;;;;35.37;21.37;;;7.40;75.20;;;;;;4939803;28;91353;-77
2020/12/16 07:16:43;;;;;;;33.33;20.37;;;7.50;75.10;;;;;;4939284;28;91617;-76
2020/12/16 07:19:10;;;;;;;37.20;21.83;;;7.50;75.10;;;;;;4940032;28;87375;-76
2020/12/16 07:21:38;;;;;;;37.63;21.97;;;7.50;75.10;;;;;;4955958;28;87592;-76
2020/12/16 07:24:16;;;;;;;40.00;22.00;;;7.60;75.80;;;;;;4947596;28;89360;-77
2020/12/16 07:26:50;;;;;;;36.40;21.57;;;7.60;75.20;;;;;;4924900;28;88817;-76
2020/12/16 07:29:29;;;;;;;30.47;18.97;;;7.60;75.20;;;;;;4921513;28;86922;-76
2020/12/16 07:32:01;;;;;;;32.37;19.33;;;7.60;75.30;;;;;;4933459;28;87423;-77
2020/12/16 07:34:28;;;;;;;31.85;19.13;;;7.60;75.30;;;;;;4935701;28;89406;-76
2020/12/16 07:37:03;;;;;;;34.30;19.57;;;7.60;75.40;;;;;;4926672;28;91116;-76
2020/12/16 07:39:30;;;;;;;28.67;17.97;;;7.60;75.60;;;;;;4930002;28;87447;-75
2020/12/16 07:41:57;;;;;;;29.07;18.97;;;7.60;75.40;;;;;;4937771;28;86936;-76
2020/12/16 07:44:24;;;;;;;27.80;17.47;;;7.70;75.40;;;;;;4935516;28;88199;-75
2020/12/16 07:46:51;;;;;;;25.93;17.37;;;7.70;75.40;;;;;;4920782;28;90517;-75
2020/12/16 07:49:20;;;;;;;35.47;20.53;;;7.70;75.30;;;;;;4935135;28;87919;-78
2020/12/16 07:51:46;;;;;;;61.50;32.37;;;7.70;75.10;;;;;;4927413;28;86980;-77
2020/12/16 07:54:12;;;;;;;72.50;31.77;;;7.70;75.20;;;;;;4933481;28;91526;-77
2020/12/16 07:56:38;;;;;;;57.53;26.53;;;7.80;75.40;;;;;;4934848;28;91607;-78
2020/12/16 07:59:11;;;;;;;44.77;22.90;;;7.70;75.60;;;;;;4934913;28;87096;-77
2020/12/16 08:01:37;;;;;;;39.20;22.00;;;7.70;75.60;;;;;;4915432;28;88181;-77
2020/12/16 08:04:03;;;;;;;30.93;18.37;;;7.80;75.40;;;;;;4935318;28;91803;-77
2020/12/16 08:06:29;;;;;;;33.97;19.43;;;7.80;75.40;;;;;;4911154;28;89812;-77
2020/12/16 08:08:57;;;;;;;28.23;18.30;;;7.80;75.30;;;;;;4927972;28;87091;-77
2020/12/16 08:11:26;;;;;;;24.63;16.93;;;7.80;75.30;;;;;;4935918;28;87711;-77
2020/12/16 08:14:02;;;;;;;28.57;18.37;;;7.80;75.50;;;;;;4931591;28;89220;-77
2020/12/16 08:16:28;;;;;;;31.93;18.83;;;7.80;75.50;;;;;;4930609;28;89516;-77
2020/12/16 08:18:54;;;;;;;32.33;19.50;;;7.80;75.50;;;;;;4946548;28;88094;-77
2020/12/16 08:21:21;;;;;;;29.20;20.27;;;7.90;75.50;;;;;;4939657;28;87320;-77
2020/12/16 08:23:49;;;;;;;33.37;20.13;;;7.90;75.40;;;;;;4932426;28;88084;-77
2020/12/16 08:26:19;;;;;;;22.87;16.30;;;7.90;75.30;;;;;;4936904;28;87500;-77
2020/12/16 08:28:45;;;;;;;24.70;16.73;;;7.90;75.50;;;;;;4951499;28;86985;-77
2020/12/16 08:31:12;;;;;;;25.77;17.00;;;7.90;75.40;;;;;;4930692;28;88114;-78
2020/12/16 08:33:43;;;;;;;23.93;16.63;;;7.90;75.70;;;;;;4947219;28;90871;-78
2020/12/16 08:36:11;;;;;;;24.73;16.40;;;7.90;75.80;;;;;;4934022;28;87619;-78
2020/12/16 08:38:40;;;;;;;25.93;17.17;;;7.90;75.80;;;;;;4938769;28;88253;-78
2020/12/16 08:41:09;;;;;;;28.07;17.93;;;7.90;75.80;;;;;;4938300;28;87466;-78
2020/12/16 08:43:42;;;;;;;28.00;17.83;;;8.00;75.80;;;;;;4939394;28;92682;-78
2020/12/16 08:46:13;;;;;;;24.47;16.03;;;8.00;75.80;;;;;;4934041;28;87724;-78
2020/12/16 08:48:47;;;;;;;;;;;8.00;75.70;;;;;;4919833;28;87706;-77
2020/12/16 08:51:17;;;;;;;26.77;18.13;;;8.10;75.80;;;;;;4939343;28;87109;-78
2020/12/16 08:54:04;;;;;;;39.60;21.77;;;8.10;75.70;;;;;;4938050;28;89983;-77
2020/12/16 08:56:36;;;;;;;37.17;21.73;;;8.10;75.60;;;;;;4938695;28;90305;-78
2020/12/16 08:59:18;;;;;;;;;;;8.10;75.70;;;;;;4944474;28;87467;-78
2020/12/16 09:02:08;;;;;;;39.72;21.70;;;8.10;75.60;;;;;;4935562;28;87112;-76
2020/12/16 09:04:39;;;;;;;32.93;20.63;;;8.20;75.40;;;;;;4909289;28;91593;-77
2020/12/16 09:07:11;;;;;;;27.67;18.83;;;8.20;75.40;;;;;;4926393;28;91906;-77
2020/12/16 09:09:40;;;;;;;28.92;17.95;;;8.20;75.30;;;;;;4933094;28;87378;-77
2020/12/16 09:12:16;;;;;;;26.93;17.83;;;8.20;75.50;;;;;;4930291;28;87306;-78
2020/12/16 09:14:52;;;;;;;33.43;19.43;;;8.30;75.40;;;;;;4928056;28;91032;-78
2020/12/16 09:17:21;;;;;;;26.30;18.47;;;8.30;75.40;;;;;;4937475;28;87716;-77
2020/12/16 09:19:47;;;;;;;26.97;18.17;;;8.30;75.10;;;;;;4931085;28;87907;-78
2020/12/16 09:22:12;;;;;;;29.07;19.63;;;8.40;75.00;;;;;;4932482;28;88249;-78
2020/12/16 09:24:38;;;;;;;35.57;21.77;;;8.50;75.00;;;;;;4916745;28;91694;-77
2020/12/16 09:27:08;;;;;;;37.83;24.60;;;8.50;74.90;;;;;;4933629;28;87392;-76
2020/12/16 09:29:35;;;;;;;35.83;23.17;;;8.50;74.80;;;;;;4919008;28;88247;-77
2020/12/16 09:32:17;;;;;;;31.63;21.43;;;8.50;74.70;;;;;;4933600;28;87035;-77
2020/12/16 09:34:45;;;;;;;33.72;22.00;;;8.60;74.80;;;;;;4932369;28;91798;-77
2020/12/16 09:37:15;;;;;;;56.27;33.60;;;8.60;74.80;;;;;;4921333;28;89918;-77
2020/12/16 09:39:45;;;;;;;47.20;27.67;;;8.60;74.20;;;;;;4947420;28;87484;-77
2020/12/16 09:42:14;;;;;;;47.70;27.63;;;8.60;73.90;;;;;;4935670;28;87337;-77
2020/12/16 09:44:40;;;;;;;49.83;28.80;;;8.50;74.00;;;;;;4936727;28;91571;-77
2020/12/16 09:47:24;;;;;;;84.27;46.90;;;8.50;74.10;;;;;;4938697;28;91006;-76
2020/12/16 09:49:59;;;;;;;43.90;26.90;;;8.60;74.00;;;;;;4922858;28;87510;-76
2020/12/16 09:52:33;;;;;;;49.73;29.47;;;8.50;74.10;;;;;;4938162;28;87346;-77
2020/12/16 09:55:14;;;;;;;56.83;32.70;;;8.50;73.90;;;;;;4921243;28;91415;-77
2020/12/16 09:57:40;;;;;;;38.03;24.67;;;8.40;74.50;;;;;;4941004;28;92658;-76
2020/12/16 10:00:08;;;;;;;41.37;24.50;;;8.50;74.20;;;;;;4934784;28;87637;-76
2020/12/16 10:02:35;;;;;;;48.83;28.77;;;8.50;74.20;;;;;;4932002;28;87188;-76
2020/12/16 10:05:00;;;;;;;43.23;27.27;;;8.50;74.40;;;;;;4966357;28;90669;-76
2020/12/16 10:07:33;;;;;;;44.90;27.53;;;8.50;74.40;;;;;;4945011;28;90783;-76
2020/12/16 10:10:00;;;;;;;35.40;23.60;;;8.50;74.30;;;;;;4945162;28;87467;-76
2020/12/16 10:12:26;;;;;;;34.00;21.80;;;8.60;74.10;;;;;;4933261;28;88236;-76
2020/12/16 10:14:52;;;;;;;37.63;23.13;;;8.60;74.00;;;;;;4936370;28;91615;-76
2020/12/16 10:17:24;;;;;;;39.37;24.73;;;8.60;74.00;;;;;;4932464;28;88299;-76
2020/12/16 10:19:53;;;;;;;38.13;25.23;;;8.60;73.70;;;;;;4948840;28;88901;-75
2020/12/16 10:22:19;;;;;;;39.73;26.23;;;8.60;74.30;;;;;;4939591;28;87467;-76
2020/12/16 10:24:46;;;;;;;44.30;30.67;;;8.50;74.40;;;;;;4936065;28;88354;-76
2020/12/16 10:27:12;;;;;;;45.27;29.53;;;8.50;74.70;;;;;;4949310;28;91200;-76
2020/12/16 10:29:38;;;;;;;36.77;23.57;;;8.50;74.90;;;;;;4920846;28;87327;-75
2020/12/16 10:32:04;;;;;;;38.23;24.50;;;8.60;74.90;;;;;;4940289;28;88508;-76
2020/12/16 10:34:30;;;;;;;41.90;24.80;;;8.60;74.70;;;;;;4937910;28;87203;-76
2020/12/16 10:36:56;;;;;;;42.77;27.00;;;8.60;74.30;;;;;;4937901;28;88132;-76
2020/12/16 10:39:22;;;;;;;55.33;31.13;;;8.60;75.00;;;;;;4937366;28;87536;-76
2020/12/16 10:41:53;;;;;;;48.57;31.20;;;8.60;75.20;;;;;;4929712;28;87051;-76
2020/12/16 10:44:20;;;;;;;41.67;26.93;;;8.60;74.80;;;;;;4933538;28;92216;-76
2020/12/16 10:46:54;;;;;;;41.63;26.40;;;8.70;74.60;;;;;;4938484;28;93309;-78
2020/12/16 10:49:29;;;;;;;41.77;23.63;;;8.70;74.40;;;;;;4934815;28;87105;-76
2020/12/16 10:51:55;;;;;;;34.90;20.43;;;8.60;74.60;;;;;;4938518;28;87287;-76
2020/12/16 10:54:22;;;;;;;36.77;22.67;;;8.60;74.90;;;;;;4936158;28;87883;-76
2020/12/16 10:56:55;;;;;;;35.93;21.50;;;8.50;75.10;;;;;;4937445;28;87692;-76
2020/12/16 10:59:22;;;;;;;53.07;26.20;;;8.50;75.30;;;;;;4927902;28;87548;-76
2020/12/16 11:01:48;;;;;;;49.10;24.80;;;8.50;75.60;;;;;;4931246;28;86420;-76
2020/12/16 11:04:13;;;;;;;47.80;25.30;;;8.50;75.80;;;;;;4935517;28;91364;-76
2020/12/16 11:06:45;;;;;;;37.63;22.97;;;8.50;75.90;;;;;;4934138;28;90716;-76
2020/12/16 11:09:12;;;;;;;45.35;26.10;;;8.60;75.80;;;;;;4922372;28;88433;-75
2020/12/16 11:11:45;;;;;;;66.05;32.95;;;8.60;76.00;;;;;;4935967;28;87426;-76
2020/12/16 11:14:11;;;;;;;40.33;24.93;;;8.60;75.80;;;;;;4929769;28;88425;-76
2020/12/16 11:16:38;;;;;;;45.90;25.10;;;8.60;75.80;;;;;;4932154;28;90868;-76
2020/12/16 11:19:04;;;;;;;72.70;30.90;;;8.70;75.80;;;;;;4935471;28;87245;-76
2020/12/16 11:21:40;;;;;;;61.47;28.25;;;8.70;75.60;;;;;;4936796;28;88474;-76
2020/12/16 11:24:07;;;;;;;39.22;21.98;;;8.70;75.50;;;;;;4932607;28;91506;-76
2020/12/16 11:26:46;;;;;;;37.77;23.27;;;8.70;75.60;;;;;;4940632;28;86634;-76
2020/12/16 11:29:13;;;;;;;39.97;24.33;;;8.70;75.80;;;;;;4941668;28;87991;-76
2020/12/16 11:31:41;;;;;;;41.85;23.70;;;8.80;75.70;;;;;;4935427;28;87966;-76
2020/12/16 11:34:10;;;;;;;35.20;23.33;;;8.90;75.20;;;;;;4938654;28;92825;-76
2020/12/16 11:36:39;;;;;;;40.03;23.43;;;8.80;75.40;;;;;;4941686;28;91730;-76
2020/12/16 11:39:06;;;;;;;42.08;25.50;;;8.80;75.80;;;;;;4939142;28;88047;-76
2020/12/16 11:41:32;;;;;;;43.45;24.58;;;8.80;75.80;;;;;;4938576;28;88293;-76
2020/12/16 11:43:58;;;;;;;41.73;25.23;;;8.80;75.70;;;;;;4930511;28;91460;-76
2020/12/16 11:46:30;;;;;;;45.00;25.53;;;8.80;75.50;;;;;;4941083;28;91180;-76
2020/12/16 11:49:00;;;;;;;40.60;24.23;;;8.80;75.60;;;;;;4934816;28;87467;-76
2020/12/16 11:51:27;;;;;;;51.92;26.83;;;8.90;75.50;;;;;;4944649;28;88668;-76
2020/12/16 11:53:54;;;;;;;60.38;29.90;;;8.80;75.60;;;;;;4946494;28;87420;-76
2020/12/16 11:56:20;;;;;;;51.53;28.02;;;8.90;75.80;;;;;;4939751;28;88526;-76
2020/12/16 11:58:47;;;;;;;40.58;25.13;;;8.90;75.80;;;;;;4940596;28;88242;-76
2020/12/16 12:01:13;;;;;;;41.67;24.13;;;8.90;75.60;;;;;;4941116;28;87021;-76
2020/12/16 12:03:39;;;;;;;39.37;24.93;;;9.00;75.50;;;;;;4932781;28;87868;-76
2020/12/16 12:06:23;;;;;;;39.05;24.85;;;9.00;75.50;;;;;;4935061;28;91859;-76
2020/12/16 12:08:49;;;;;;;38.73;22.73;;;8.80;76.20;;;;;;4933347;28;87523;-76
2020/12/16 12:11:17;;;;;;;35.50;22.38;;;8.80;76.40;;;;;;4933440;28;87210;-76
2020/12/16 12:13:43;;;;;;;39.17;25.13;;;8.80;76.60;;;;;;4932658;28;88731;-76
2020/12/16 12:16:10;;;;;;;49.53;27.98;;;8.90;76.40;;;;;;4931266;28;87411;-76
2020/12/16 12:18:39;;;;;;;56.55;30.80;;;8.90;76.40;;;;;;4937131;28;87264;-76
2020/12/16 12:21:05;;;;;;;46.78;29.75;;;8.80;76.60;;;;;;4916642;28;88154;-76
2020/12/16 12:23:31;;;;;;;43.37;27.17;;;8.80;76.80;;;;;;4915760;28;92765;-76
2020/12/16 12:25:57;;;;;;;43.00;25.88;;;8.70;77.20;;;;;;4929753;28;92262;-76
2020/12/16 12:28:23;;;;;;;46.40;28.13;;;8.80;77.30;;;;;;4932732;28;87166;-78
2020/12/16 12:30:49;;;;;;;49.58;28.05;;;8.80;77.30;;;;;;4935568;28;87968;-78
2020/12/16 12:33:14;;;;;;;46.70;27.70;;;8.80;77.50;;;;;;4921474;28;91229;-78
2020/12/16 12:35:40;;;;;;;44.33;27.92;;;8.80;77.50;;;;;;4947427;28;87433;-77
2020/12/16 12:38:06;;;;;;;58.88;33.22;;;8.90;77.50;;;;;;4942320;28;87072;-76
2020/12/16 12:40:32;;;;;;;50.85;28.80;;;8.90;77.20;;;;;;4932026;28;86617;-76
2020/12/16 12:42:58;;;;;;;80.53;43.95;;;9.00;77.00;;;;;;4955728;28;89860;-77
2020/12/16 12:45:24;;;;;;;85.53;57.13;;;8.90;76.70;;;;;;4939875;28;87775;-77
2020/12/16 12:47:50;;;;;;;78.32;53.08;;;8.90;76.60;;;;;;4932016;28;88809;-77
2020/12/16 12:50:16;;;;;;;65.50;37.30;;;8.90;76.90;;;;;;4939237;28;87771;-77
2020/12/16 12:52:42;;;;;;;51.30;28.80;;;9.00;77.20;;;;;;4938871;28;88716;-77
2020/12/16 12:55:07;;;;;;;49.43;29.37;;;8.90;77.20;;;;;;4918320;28;91189;-77